Fort Myers Airport, FL

5:05 AM EDT on April 23, 2017 (GMT -0400)
Southwest Florida International | | Change Station

Elev 30 ft 26.54 °N, 81.75 °W | Updated 12 minutes ago

Light Rain
Light Rain
70 °F
Feels Like 70 °F
N
5
Wind Variable Wind from NNE

Today
High -- | Low -- °F
--% Chance of Precip.
Yesterday
High -- | Low -- °F
Precip. -- in
Pressure 29.82 in
Visibility 10.0 miles
Clouds Mostly Cloudy 1800 ft
Mostly Cloudy 5000 ft
Overcast 10000 ft
Dew Point 67 °F
Humidity 90%
Rainfall 0.01 in
Snow Depth Not available.
6:55 AM 7:55 PM
Waning Crescent, 13% visible
METAR KRSW 230853Z AUTO 03004KT 10SM -RA BKN018 BKN050 OVC100 21/19 A2983 RMK AO2 LTG DSNT SW RAB35 SLP097 P0001 60001 T02110194 56012
Pressure 29.82 in
Visibility 10.0 miles
Clouds Mostly Cloudy 1800 ft
Mostly Cloudy 5000 ft
Overcast 10000 ft
Dew Point 67 °F
Humidity 90%
Rainfall 0.01 in
Snow Depth Not available.
6:55 AM 7:55 PM
Waning Crescent, 13% visible
METAR KRSW 230853Z AUTO 03004KT 10SM -RA BKN018 BKN050 OVC100 21/19 A2983 RMK AO2 LTG DSNT SW RAB35 SLP097 P0001 60001 T02110194 56012

Get Severe Weather Alerts

Thanks for signing up!

Be on the lookout for a verification email in your inbox.

You'll start receiving the daily forecast at 8 AM.

×

10-Day Weather Forecast

Almanac

Astronomy

Apr. 23, 2017 Rise Set
Actual Time
Civil Twilight
Nautical Twilight
Astronomical Twilight
Moon
Length of Visible Light
Length of Day
Tomorrow will be .
, % of the Moon is Illuminated

Today's Extremes

State Highs State Lows

Community

WunderPhotos

WunderBlog® & News

Nearby

Air Quality

  Air Quality AQ Index Pollutant
Not available.

Snow Depth

Station Depth Elevation

Earthquake Activity

City Distance Mag. Time & Date
Minimum magnitude displayed is 2.5.

Coastal Water Temperatures

Place Temperature

Stations

Nearby Weather Stations

Station Location Temp. Windchill Dew Point Humidity Wind Precip. Elev Updated Type
                   

Watches & Warnings

There are currently no watches in effect.